Time;durP1;ratioP1;P1;durP2;ratioP2;P2;SDS_P1;SDS_P2;PMS_P1;PMS_P2;Temp;Humidity;BMP_temperature;BMP_pressure;BME280_temperature;BME280_humidity;BME280_pressure;Samples;Min_cycle;Max_cycle;Signal;HPM_P1;HPM_P2
2023/05/17 00:00:19;;;;;;;12.35;4.25;;;;;;;8.42;90.08;102753.56;6100088;19;20015;-71
2023/05/17 00:02:27;;;;;;;13.13;3.95;;;;;;;8.45;90.27;102757.06;6102208;19;20027;-73
2023/05/17 00:04:32;;;;;;;12.85;4.13;;;;;;;8.50;90.11;102747.44;6103353;19;20043;-72
2023/05/17 00:06:41;;;;;;;11.65;3.58;;;;;;;8.54;90.20;102751.81;6104461;19;20577;-72
2023/05/17 00:08:46;;;;;;;13.55;4.68;;;;;;;8.53;90.33;102751.78;6100142;19;20023;-71
2023/05/17 00:10:51;;;;;;;12.77;3.97;;;;;;;8.55;90.10;102752.69;6098471;19;20018;-73
2023/05/17 00:12:56;;;;;;;12.85;4.25;;;;;;;8.58;89.85;102747.44;6100928;19;20018;-71
2023/05/17 00:15:01;;;;;;;16.02;4.93;;;;;;;8.60;89.88;102745.69;6101591;19;20451;-72
2023/05/17 00:17:07;;;;;;;12.43;4.40;;;;;;;8.60;90.31;102742.19;6102096;19;20023;-72
2023/05/17 00:19:12;;;;;;;14.45;4.55;;;;;;;8.62;90.22;102754.41;6101222;19;20006;-72
2023/05/17 00:21:19;;;;;;;16.77;5.00;;;;;;;8.62;90.27;102753.56;6100111;19;20078;-72
2023/05/17 00:23:29;;;;;;;10.95;4.10;;;;;;;8.62;90.46;102764.91;6098695;19;20006;-72
2023/05/17 00:25:34;;;;;;;13.43;4.78;;;;;;;8.65;90.23;102767.50;6102831;19;22329;-72
2023/05/17 00:27:41;;;;;;;15.35;4.13;;;;;;;8.65;90.52;102772.75;6100318;19;20007;-71
2023/05/17 00:29:46;;;;;;;17.85;4.72;;;;;;;8.66;90.80;102758.78;6099354;19;20350;-71
2023/05/17 00:31:51;;;;;;;13.23;4.40;;;;;;;8.67;90.41;102765.78;6098136;19;20103;-71
2023/05/17 00:33:56;;;;;;;14.27;4.50;;;;;;;8.69;90.37;102763.13;6100779;19;20006;-71
2023/05/17 00:36:01;;;;;;;13.02;3.85;;;;;;;8.70;90.40;102767.50;6094414;19;20043;-72
2023/05/17 00:38:07;;;;;;;14.75;4.32;;;;;;;8.71;90.22;102762.25;6099746;19;20040;-73
2023/05/17 00:40:17;;;;;;;13.60;5.13;;;;;;;8.72;90.47;102765.78;6103017;19;20017;-72
2023/05/17 00:42:25;;;;;;;11.85;4.47;;;;;;;8.76;90.26;102759.63;6098765;19;20009;-71
2023/05/17 00:44:30;;;;;;;14.45;4.90;;;;;;;8.79;90.63;102749.13;6101468;19;20018;-71
2023/05/17 00:46:35;;;;;;;14.43;4.57;;;;;;;8.79;90.38;102746.50;6096810;19;20589;-72
2023/05/17 00:48:41;;;;;;;14.13;4.95;;;;;;;8.78;90.16;102750.03;6102486;19;20471;-72
2023/05/17 00:50:46;;;;;;;17.85;5.47;;;;;;;8.77;90.42;102757.03;6096134;19;20106;-72
2023/05/17 00:52:51;;;;;;;19.25;4.80;;;;;;;8.73;90.21;102757.03;6092808;19;19999;-71
2023/05/17 00:54:56;;;;;;;16.25;4.72;;;;;;;8.74;90.19;102764.00;6098269;19;20007;-71
2023/05/17 00:57:07;;;;;;;8.77;3.97;;;;;;;8.76;90.37;102762.25;6099080;19;20022;-71
2023/05/17 00:59:14;;;;;;;15.15;5.20;;;;;;;8.75;90.88;102753.53;6098315;19;20479;-72
2023/05/17 01:01:22;;;;;;;12.55;4.50;;;;;;;8.77;90.44;102756.16;6096700;19;20014;-72
2023/05/17 01:03:29;;;;;;;18.02;4.90;;;;;;;8.75;90.85;102758.75;6096870;19;20011;-73
2023/05/17 01:05:35;;;;;;;11.93;4.53;;;;;;;8.72;90.16;102753.53;6099008;19;20038;-71
2023/05/17 01:07:40;;;;;;;14.80;4.72;;;;;;;8.68;90.75;102759.66;6096490;19;20019;-71
2023/05/17 01:09:46;;;;;;;15.07;4.45;;;;;;;8.66;90.85;102764.03;6097968;19;20015;-70
2023/05/17 01:11:58;;;;;;;15.50;5.70;;;;;;;8.62;91.44;102764.91;6098668;19;20417;-71
2023/05/17 01:14:20;;;;;;;16.58;4.90;;;;;;;8.67;91.27;102757.03;6098015;19;20006;-71
2023/05/17 01:16:34;;;;;;;11.30;4.45;;;;;;;8.68;91.38;102745.66;6099311;19;20059;-71
2023/05/17 01:18:48;;;;;;;12.82;4.30;;;;;;;8.65;90.73;102759.66;6096712;19;20074;-71
2023/05/17 01:20:56;;;;;;;19.55;5.25;;;;;;;8.64;90.95;102759.69;6093872;19;20031;-71
2023/05/17 01:23:21;;;;;;;16.65;4.65;;;;;;;8.66;91.17;102753.56;6095598;19;20066;-71
2023/05/17 01:25:37;;;;;;;13.02;4.45;;;;;;;8.66;91.11;102755.28;6100995;19;20006;-73
2023/05/17 01:27:49;;;;;;;15.23;4.40;;;;;;;8.68;90.76;102749.16;6096684;19;20678;-71
2023/05/17 01:29:57;;;;;;;8.93;4.07;;;;;;;8.71;91.04;102748.28;6096470;19;20007;-70
2023/05/17 01:32:04;;;;;;;13.70;4.35;;;;;;;8.71;90.70;102746.53;6097733;19;20002;-71
2023/05/17 01:34:11;;;;;;;13.07;4.88;;;;;;;8.73;90.81;102751.78;6096171;19;20344;-73
2023/05/17 01:36:19;;;;;;;18.85;4.97;;;;;;;8.73;91.59;102757.88;6097519;19;20059;-73
2023/05/17 01:38:26;;;;;;;17.15;4.68;;;;;;;8.78;91.15;102757.88;6093530;19;20002;-71
2023/05/17 01:40:37;;;;;;;15.80;4.88;;;;;;;8.81;91.70;102757.88;6095424;19;20413;-72
2023/05/17 01:42:46;;;;;;;12.13;4.25;;;;;;;8.82;91.45;102758.75;6092318;19;20711;-70
2023/05/17 01:45:02;;;;;;;13.98;4.43;;;;;;;8.84;91.52;102762.22;6097740;19;20132;-71
2023/05/17 01:47:14;;;;;;;17.73;5.40;;;;;;;8.86;91.36;102763.13;6093712;19;20014;-74
2023/05/17 01:49:23;;;;;;;14.45;5.25;;;;;;;8.85;91.17;102762.25;6099276;19;20007;-73
2023/05/17 01:51:35;;;;;;;15.48;5.13;;;;;;;8.86;91.61;102768.34;6098741;19;20612;-72
2023/05/17 01:53:44;;;;;;;16.23;5.13;;;;;;;8.82;91.54;102767.50;6094385;19;20027;-71
2023/05/17 01:55:53;;;;;;;19.20;6.47;;;;;;;8.80;91.62;102769.25;6095699;19;20511;-73
2023/05/17 01:58:07;;;;;;;20.00;5.03;;;;;;;8.77;91.52;102772.75;6098916;19;20539;-72
2023/05/17 02:00:14;;;;;;;12.83;4.53;;;;;;;8.79;91.53;102765.75;6098785;19;20484;-72
2023/05/17 02:02:21;;;;;;;14.23;4.68;;;;;;;8.81;91.55;102767.50;6099001;19;20388;-73
2023/05/17 02:04:26;;;;;;;19.60;5.93;;;;;;;8.82;91.96;102763.97;6098405;19;20024;-72
2023/05/17 02:06:34;;;;;;;16.83;4.63;;;;;;;8.84;91.95;102760.47;6101181;19;20447;-71
2023/05/17 02:08:41;;;;;;;22.60;6.10;;;;;;;8.85;91.76;102769.25;6098916;19;20014;-72
2023/05/17 02:10:46;;;;;;;16.60;5.60;;;;;;;8.92;91.95;102760.47;6095967;19;20002;-71
2023/05/17 02:12:51;;;;;;;19.70;5.78;;;;;;;8.95;91.91;102763.06;6100078;19;20007;-72
2023/05/17 02:14:59;;;;;;;15.55;4.50;;;;;;;8.99;91.97;102755.19;6098752;19;20013;-71
2023/05/17 02:17:04;;;;;;;17.80;5.43;;;;;;;9.04;91.81;102755.19;6099136;19;20754;-72
2023/05/17 02:19:11;;;;;;;19.25;5.35;;;;;;;9.05;91.58;102756.06;6098371;19;20006;-71
2023/05/17 02:21:18;;;;;;;19.95;5.40;;;;;;;9.07;91.65;102759.56;6097964;19;20351;-72
2023/05/17 02:23:23;;;;;;;16.52;4.75;;;;;;;9.09;91.57;102756.06;6097634;19;20014;-72
2023/05/17 02:25:31;;;;;;;15.25;4.95;;;;;;;9.14;91.85;102762.16;6100333;19;20011;-72
2023/05/17 02:27:37;;;;;;;18.20;5.45;;;;;;;9.18;91.61;102761.25;6097122;19;19998;-71
2023/05/17 02:29:42;;;;;;;19.88;5.60;;;;;;;9.20;91.49;102767.38;6097746;19;20064;-72
2023/05/17 02:31:50;;;;;;;16.90;4.93;;;;;;;9.22;91.41;102763.00;6099516;19;20463;-72
2023/05/17 02:33:55;;;;;;;14.95;5.25;;;;;;;9.24;91.62;102768.22;6097545;19;20015;-72
2023/05/17 02:36:00;;;;;;;23.58;5.13;;;;;;;9.27;91.77;102762.09;6099327;19;20101;-72
2023/05/17 02:38:05;;;;;;;20.77;5.25;;;;;;;9.27;91.63;102767.34;6100810;19;20017;-72
2023/05/17 02:40:11;;;;;;;14.00;4.90;;;;;;;9.26;91.49;102766.47;6100391;19;20007;-72
2023/05/17 02:42:16;;;;;;;16.52;4.78;;;;;;;9.30;91.75;102759.47;6097698;19;20517;-71
2023/05/17 02:44:21;;;;;;;18.80;6.03;;;;;;;9.30;91.71;102757.72;6099212;19;20680;-72
2023/05/17 02:46:26;;;;;;;21.50;5.43;;;;;;;9.29;91.72;102762.97;6099361;19;20027;-72
2023/05/17 02:48:34;;;;;;;26.67;6.32;;;;;;;9.30;91.57;102770.84;6097352;19;20018;-72
2023/05/17 02:50:42;;;;;;;17.73;5.28;;;;;;;9.31;91.54;102769.06;6100570;19;20042;-71
2023/05/17 02:52:50;;;;;;;19.17;5.47;;;;;;;9.31;91.87;102771.69;6085012;19;20366;-71
2023/05/17 02:54:55;;;;;;;17.48;5.57;;;;;;;9.32;91.57;102770.81;6096899;19;20486;-71
2023/05/17 02:57:00;;;;;;;23.40;5.85;;;;;;;9.34;91.62;102774.31;6097301;19;20104;-72
2023/05/17 02:59:05;;;;;;;20.95;6.10;;;;;;;9.34;91.53;102769.06;6097269;19;20608;-72
2023/05/17 03:01:11;;;;;;;23.00;5.72;;;;;;;9.37;91.65;102767.31;6094467;19;20007;-71
2023/05/17 03:03:16;;;;;;;21.13;5.13;;;;;;;9.38;91.39;102765.56;6091390;19;20012;-71
2023/05/17 03:05:26;;;;;;;21.08;5.82;;;;;;;9.37;91.29;102774.28;6096642;19;20042;-71
2023/05/17 03:07:32;;;;;;;20.85;5.13;;;;;;;9.36;91.60;102777.81;6097588;19;20858;-71
2023/05/17 03:09:37;;;;;;;17.65;6.28;;;;;;;9.38;91.61;102782.16;6098391;19;20011;-72
2023/05/17 03:11:42;;;;;;;19.38;6.78;;;;;;;9.39;91.51;102781.28;6092307;19;20103;-72
2023/05/17 03:13:50;;;;;;;16.83;6.22;;;;;;;9.40;91.23;102783.03;6094287;19;21033;-72
2023/05/17 03:15:55;;;;;;;29.40;6.13;;;;;;;9.39;91.39;102783.91;6096783;19;20011;-72
2023/05/17 03:18:00;;;;;;;18.50;5.85;;;;;;;9.38;91.34;102778.69;6092104;19;20836;-72
2023/05/17 03:20:06;;;;;;;22.65;7.18;;;;;;;9.38;91.66;102781.31;6094561;19;20007;-72
2023/05/17 03:22:14;;;;;;;19.80;6.55;;;;;;;9.39;91.54;102780.41;6094891;19;20002;-72
2023/05/17 03:24:19;;;;;;;17.45;5.95;;;;;;;9.36;91.45;102776.03;6096055;19;20003;-72
2023/05/17 03:26:27;;;;;;;21.33;6.03;;;;;;;9.33;91.33;102775.19;6096426;19;20002;-72
2023/05/17 03:28:32;;;;;;;18.90;5.90;;;;;;;9.34;91.48;102774.31;6096059;19;20033;-71
2023/05/17 03:30:37;;;;;;;22.25;5.93;;;;;;;9.30;91.44;102780.47;6095829;19;20692;-71
2023/05/17 03:32:43;;;;;;;21.38;6.28;;;;;;;9.26;91.57;102776.09;6095373;19;20003;-71
2023/05/17 03:34:48;;;;;;;20.65;5.65;;;;;;;9.28;91.58;102779.59;6097153;19;20415;-71
2023/05/17 03:36:53;;;;;;;23.23;7.53;;;;;;;9.30;91.42;102783.09;6096383;19;20408;-71
2023/05/17 03:39:01;;;;;;;24.80;6.15;;;;;;;9.28;91.49;102784.84;6098333;19;20007;-71
2023/05/17 03:41:07;;;;;;;18.02;6.05;;;;;;;9.24;91.34;102786.56;6093668;19;20011;-73
2023/05/17 03:43:12;;;;;;;23.38;6.43;;;;;;;9.25;91.34;102790.09;6092564;19;20506;-71
2023/05/17 03:45:20;;;;;;;23.45;6.97;;;;;;;9.20;91.62;102783.09;6094208;19;20006;-72
2023/05/17 03:47:25;;;;;;;20.77;6.60;;;;;;;9.20;91.62;102796.22;6093443;19;20842;-72
2023/05/17 03:49:30;;;;;;;22.42;5.75;;;;;;;9.19;91.71;102797.13;6097282;19;20645;-73
2023/05/17 03:51:35;;;;;;;18.85;6.70;;;;;;;9.22;91.58;102801.47;6095338;19;20452;-71
2023/05/17 03:53:42;;;;;;;25.10;5.95;;;;;;;9.27;91.68;102798.81;6088444;19;20106;-71
2023/05/17 03:55:50;;;;;;;18.25;5.72;;;;;;;9.32;91.59;102800.56;6096974;19;20368;-71
2023/05/17 03:57:55;;;;;;;20.33;6.18;;;;;;;9.33;91.23;102804.06;6094263;19;20007;-71
2023/05/17 04:00:00;;;;;;;18.85;5.75;;;;;;;9.32;91.02;102800.56;6094076;19;20296;-71
2023/05/17 04:02:07;;;;;;;20.55;4.85;;;;;;;9.35;90.65;102805.81;6099185;19;20038;-71
2023/05/17 04:04:12;;;;;;;22.10;5.85;;;;;;;9.38;88.72;102810.16;6101681;19;20006;-72
2023/05/17 04:06:20;;;;;;;23.63;5.88;;;;;;;9.39;88.44;102804.88;6099988;19;20007;-71
2023/05/17 04:08:25;;;;;;;18.48;5.28;;;;;;;9.41;87.67;102812.78;6100426;19;20482;-71
2023/05/17 04:10:33;;;;;;;14.93;6.35;;;;;;;9.41;87.44;102816.25;6101299;19;20459;-72
2023/05/17 04:12:41;;;;;;;19.48;5.20;;;;;;;9.40;87.17;102822.41;6099047;19;20589;-72
2023/05/17 04:14:46;;;;;;;19.08;4.75;;;;;;;9.39;87.25;102818.00;6087195;19;20010;-72
2023/05/17 04:16:51;;;;;;;14.05;4.13;;;;;;;9.37;87.14;102822.41;6096734;19;20010;-71
2023/05/17 04:18:56;;;;;;;17.60;5.10;;;;;;;9.39;87.23;102819.78;6094709;19;20011;-71
2023/05/17 04:21:01;;;;;;;18.83;5.05;;;;;;;9.38;86.64;102829.41;6096586;19;20035;-71
2023/05/17 04:23:06;;;;;;;23.35;4.90;;;;;;;9.34;86.56;102834.66;6096381;19;20336;-70
2023/05/17 04:25:11;;;;;;;11.93;4.70;;;;;;;9.32;87.12;102834.69;6098656;19;20013;-71
2023/05/17 04:27:20;;;;;;;18.55;4.45;;;;;;;9.30;86.56;102838.19;6095506;19;20018;-71
2023/05/17 04:29:28;;;;;;;18.77;5.50;;;;;;;9.27;86.90;102840.78;6095545;19;20119;-72
2023/05/17 04:31:33;;;;;;;22.60;6.10;;;;;;;9.26;86.18;102839.91;6097815;19;20016;-71
2023/05/17 04:33:38;;;;;;;10.88;3.55;;;;;;;9.28;86.63;102845.19;6096858;19;20003;-71
2023/05/17 04:35:44;;;;;;;18.77;4.20;;;;;;;9.28;86.22;102846.03;6094603;19;20380;-72
2023/05/17 04:37:49;;;;;;;9.80;4.28;;;;;;;9.27;86.18;102853.91;6095160;19;20309;-72
2023/05/17 04:39:55;;;;;;;16.35;4.22;;;;;;;9.23;86.03;102851.28;6096352;19;20002;-72
2023/05/17 04:42:00;;;;;;;16.88;4.30;;;;;;;9.26;86.04;102857.41;6101282;19;20013;-73
2023/05/17 04:44:05;;;;;;;15.10;3.90;;;;;;;9.27;85.09;102862.69;6099004;19;20425;-72
2023/05/17 04:46:13;;;;;;;14.50;4.45;;;;;;;9.32;84.98;102866.16;6097589;19;20018;-72
2023/05/17 04:48:22;;;;;;;14.43;4.15;;;;;;;9.32;84.95;102866.16;6098051;19;20081;-72
2023/05/17 04:50:30;;;;;;;15.60;4.38;;;;;;;9.35;85.30;102867.91;6096778;19;20372;-72
2023/05/17 04:52:35;;;;;;;22.35;5.03;;;;;;;9.40;85.26;102872.25;6094983;19;20003;-72
2023/05/17 04:54:40;;;;;;;13.45;3.90;;;;;;;9.41;85.43;102873.13;6100360;19;20472;-73
2023/05/17 04:56:45;;;;;;;18.92;4.78;;;;;;;9.47;85.61;102873.09;6099650;19;20011;-72
2023/05/17 04:58:52;;;;;;;10.82;3.67;;;;;;;9.54;85.12;102887.94;6093173;19;20023;-72
2023/05/17 05:00:57;;;;;;;22.38;4.25;;;;;;;9.62;85.09;102885.31;6096129;19;20007;-72
2023/05/17 05:03:06;;;;;;;18.63;4.20;;;;;;;9.71;84.48;102887.88;6099477;19;20378;-72
2023/05/17 05:05:12;;;;;;;16.77;4.22;;;;;;;9.82;83.67;102893.09;6101397;19;20015;-72
2023/05/17 05:07:18;;;;;;;15.70;4.35;;;;;;;9.95;83.81;102892.13;6102188;19;20067;-72
2023/05/17 05:09:23;;;;;;;15.98;5.00;;;;;;;10.13;83.34;102893.81;6099839;19;20011;-72
2023/05/17 05:11:30;;;;;;;18.20;4.28;;;;;;;10.31;82.84;102896.34;6097709;19;20445;-71
2023/05/17 05:13:37;;;;;;;18.10;4.88;;;;;;;10.47;81.17;102898.88;6100186;19;20256;-70
2023/05/17 05:15:42;;;;;;;15.15;4.32;;;;;;;10.63;81.66;102895.25;6096747;19;20732;-71
2023/05/17 05:17:50;;;;;;;17.80;4.45;;;;;;;10.70;80.15;102906.59;6096896;19;20018;-70
2023/05/17 05:19:58;;;;;;;19.92;4.32;;;;;;;10.92;79.68;102899.41;6099182;19;20021;-73
2023/05/17 05:22:03;;;;;;;14.60;4.13;;;;;;;10.97;79.42;102902.88;6097361;19;20022;-74
2023/05/17 05:24:09;;;;;;;18.38;4.35;;;;;;;10.98;78.36;102907.25;6098062;19;20101;-74
2023/05/17 05:26:14;;;;;;;17.70;4.40;;;;;;;11.26;78.62;102910.47;6098689;19;20106;-72
2023/05/17 05:28:19;;;;;;;15.95;4.75;;;;;;;11.31;77.00;102915.69;6095501;19;20038;-72
2023/05/17 05:30:25;;;;;;;14.57;4.30;;;;;;;11.43;76.14;102911.19;6101156;19;20046;-72
2023/05/17 05:32:30;;;;;;;13.40;4.00;;;;;;;11.51;76.30;102918.13;6095275;19;20198;-72
2023/05/17 05:34:35;;;;;;;20.10;4.20;;;;;;;11.69;75.39;102919.66;6099758;19;20011;-71
2023/05/17 05:36:45;;;;;;;14.00;4.05;;;;;;;11.93;75.07;102924.69;6094706;19;20015;-71
2023/05/17 05:38:53;;;;;;;24.05;4.93;;;;;;;11.85;71.84;102922.09;6095790;19;20014;-71
2023/05/17 05:40:58;;;;;;;14.90;3.60;;;;;;;11.89;72.75;102927.38;6095965;19;20447;-72
2023/05/17 05:43:03;;;;;;;19.75;3.55;;;;;;;12.09;71.24;102938.53;6098118;19;20014;-71
2023/05/17 05:45:11;;;;;;;19.40;4.38;;;;;;;11.98;71.37;102925.50;6098675;19;20010;-71
2023/05/17 05:47:16;;;;;;;16.63;3.67;;;;;;;12.18;70.59;102937.53;6097049;19;20003;-71
2023/05/17 05:49:23;;;;;;;11.25;2.97;;;;;;;12.00;69.57;102941.25;6095729;19;20026;-72
2023/05/17 05:51:28;;;;;;;17.50;3.45;;;;;;;11.93;70.80;102948.41;6098929;19;20439;-71
2023/05/17 05:53:36;;;;;;;19.30;4.18;;;;;;;12.15;70.59;102953.38;6090977;19;20011;-72
2023/05/17 05:55:43;;;;;;;19.98;3.97;;;;;;;12.37;70.80;102956.59;6095602;19;20074;-73
2023/05/17 05:57:48;;;;;;;19.30;3.72;;;;;;;12.71;69.75;102959.59;6096361;19;20009;-72
2023/05/17 05:59:53;;;;;;;16.85;3.72;;;;;;;12.75;69.59;102963.94;6100214;19;20003;-72
2023/05/17 06:01:58;;;;;;;13.98;3.70;;;;;;;12.82;68.38;102956.78;6093306;19;20502;-71
2023/05/17 06:04:03;;;;;;;21.98;4.90;;;;;;;13.01;68.55;102958.25;6092755;19;20010;-71
2023/05/17 06:06:09;;;;;;;15.43;4.03;;;;;;;13.28;66.72;102959.56;6097281;19;20059;-73
2023/05/17 06:08:15;;;;;;;19.63;3.80;;;;;;;13.03;67.41;102961.69;6095829;19;20011;-72
2023/05/17 06:10:25;;;;;;;13.52;3.47;;;;;;;12.73;65.52;102960.44;6097920;19;20094;-71
2023/05/17 06:12:33;;;;;;;19.92;4.88;;;;;;;13.17;66.91;102958.84;6097823;19;20003;-73
2023/05/17 06:14:39;;;;;;;14.35;2.88;;;;;;;13.07;64.77;102968.69;6093948;19;20011;-73
2023/05/17 06:16:44;;;;;;;19.10;3.92;;;;;;;12.81;65.17;102970.88;6089371;19;20086;-71
2023/05/17 06:18:49;;;;;;;15.60;3.25;;;;;;;12.77;66.08;102966.53;6098178;19;20055;-71
2023/05/17 06:20:55;;;;;;;15.15;3.35;;;;;;;12.62;65.11;102968.53;6098134;19;20017;-72
2023/05/17 06:23:00;;;;;;;14.80;3.78;;;;;;;12.16;66.88;102968.28;6096739;19;20053;-72
2023/05/17 06:25:06;;;;;;;14.82;3.53;;;;;;;11.72;67.43;102975.81;6095131;19;20018;-72
2023/05/17 06:27:14;;;;;;;19.92;3.97;;;;;;;11.81;65.99;102972.19;6097185;19;20010;-71
2023/05/17 06:29:19;;;;;;;12.05;3.03;;;;;;;11.89;66.26;102974.78;6099270;19;20006;-72
2023/05/17 06:31:26;;;;;;;20.15;3.33;;;;;;;12.02;67.27;102971.97;6093312;19;20165;-73
2023/05/17 06:33:31;;;;;;;15.88;3.10;;;;;;;13.05;65.88;102980.16;6096610;19;20016;-72
2023/05/17 06:35:37;;;;;;;15.23;3.10;;;;;;;12.85;63.91;102965.53;6098172;19;20006;-72
2023/05/17 06:37:59;;;;;;;16.02;3.22;;;;;;;13.03;63.48;102966.97;6098285;19;20022;-72
2023/05/17 06:40:06;;;;;;;13.23;3.17;;;;;;;12.87;63.37;102976.06;6101545;19;20070;-72
2023/05/17 06:42:22;;;;;;;9.60;2.80;;;;;;;12.80;62.60;102982.34;6101303;19;20006;-72
2023/05/17 06:44:33;;;;;;;13.82;3.30;;;;;;;12.35;62.85;102982.09;6099672;19;20455;-72
2023/05/17 06:46:38;;;;;;;14.80;3.67;;;;;;;13.00;62.21;102985.50;6096949;19;20430;-72
2023/05/17 06:48:43;;;;;;;11.50;3.33;;;;;;;13.57;60.34;102977.50;6090737;19;20010;-71
2023/05/17 06:50:48;;;;;;;13.93;3.65;;;;;;;13.09;60.28;102988.03;6092843;19;20057;-71
2023/05/17 06:52:53;;;;;;;13.75;2.95;;;;;;;13.59;59.73;102986.28;6087944;19;20019;-71
2023/05/17 06:55:01;;;;;;;15.25;3.03;;;;;;;13.81;58.21;102972.66;6091094;19;20034;-72
2023/05/17 06:57:08;;;;;;;14.13;2.88;;;;;;;13.70;59.04;102988.72;6092103;19;20020;-73
2023/05/17 06:59:18;;;;;;;10.57;3.05;;;;;;;13.71;60.24;102976.38;6089429;19;20520;-73
2023/05/17 07:01:26;;;;;;;11.48;2.92;;;;;;;14.43;59.39;102988.97;6092369;19;20489;-73
2023/05/17 07:03:34;;;;;;;12.55;2.95;;;;;;;14.00;58.61;102995.16;6084742;19;20002;-73
2023/05/17 07:05:42;;;;;;;13.45;3.10;;;;;;;12.65;61.06;102994.84;6088619;19;20014;-73
2023/05/17 07:07:47;;;;;;;17.92;3.72;;;;;;;12.23;63.88;103002.47;6093506;19;20011;-71
2023/05/17 07:09:52;;;;;;;15.65;3.00;;;;;;;11.99;65.54;103008.03;6087105;19;20071;-72
2023/05/17 07:12:00;;;;;;;14.15;3.55;;;;;;;11.85;65.34;103005.53;6089471;19;20086;-72
2023/05/17 07:14:05;;;;;;;11.68;3.10;;;;;;;12.07;64.18;103008.81;6096137;19;20014;-72
2023/05/17 07:16:13;;;;;;;10.32;2.88;;;;;;;12.70;61.50;103011.50;6097732;19;20010;-73
2023/05/17 07:18:18;;;;;;;11.10;2.85;;;;;;;13.32;58.73;103010.53;6091916;19;20379;-72
2023/05/17 07:20:27;;;;;;;11.63;2.83;;;;;;;13.43;59.29;103005.06;6092479;19;20717;-71
2023/05/17 07:22:32;;;;;;;8.55;2.50;;;;;;;13.84;57.59;103015.72;6093653;19;20512;-73
2023/05/17 07:24:37;;;;;;;13.40;2.88;;;;;;;14.53;56.75;103008.16;6094459;19;20010;-73
2023/05/17 07:26:42;;;;;;;13.50;2.95;;;;;;;14.81;55.36;103005.75;6087575;19;20003;-73
2023/05/17 07:28:50;;;;;;;11.77;2.60;;;;;;;14.85;54.38;103006.56;6091895;19;20728;-74
2023/05/17 07:30:55;;;;;;;12.57;3.22;;;;;;;14.92;55.09;103011.66;6090267;19;20019;-73
2023/05/17 07:33:03;;;;;;;13.18;2.85;;;;;;;14.88;54.52;103007.38;6092989;19;20003;-73
2023/05/17 07:35:09;;;;;;;9.15;3.38;;;;;;;14.97;53.09;103010.69;6097521;19;20002;-72
2023/05/17 07:37:14;;;;;;;8.90;2.53;;;;;;;15.67;52.35;103006.25;6098204;19;20434;-71
2023/05/17 07:39:25;;;;;;;11.50;3.00;;;;;;;15.64;52.46;103008.09;6095443;19;20014;-73
2023/05/17 07:41:30;;;;;;;12.55;3.40;;;;;;;16.20;52.02;103013.63;6095664;19;20478;-73
2023/05/17 07:43:35;;;;;;;10.68;2.90;;;;;;;15.34;51.29;103014.16;6097652;19;20384;-72
2023/05/17 07:45:40;;;;;;;13.40;2.78;;;;;;;15.85;53.49;103025.22;6097359;19;20023;-72
2023/05/17 07:47:45;;;;;;;10.15;2.60;;;;;;;16.05;50.36;103025.53;6090091;19;20010;-72
2023/05/17 07:49:53;;;;;;;19.70;3.58;;;;;;;14.62;52.71;103031.78;6096549;19;20443;-72
2023/05/17 07:51:58;;;;;;;8.95;3.10;;;;;;;14.40;54.00;103031.38;6088585;19;20070;-73
2023/05/17 07:54:04;;;;;;;13.88;2.70;;;;;;;13.70;55.29;103035.41;6089305;19;20467;-72
2023/05/17 07:56:09;;;;;;;10.38;3.15;;;;;;;14.56;53.86;103028.41;6079230;19;20023;-72
2023/05/17 07:58:14;;;;;;;11.45;2.50;;;;;;;15.29;52.77;103031.06;6090531;19;20011;-73
2023/05/17 08:00:21;;;;;;;11.15;2.35;;;;;;;15.58;50.77;103017.06;6089606;19;20010;-73
2023/05/17 08:02:26;;;;;;;9.55;2.60;;;;;;;16.01;50.31;103027.41;6093588;19;20006;-73
2023/05/17 08:04:32;;;;;;;11.82;3.38;;;;;;;16.28;50.07;103031.97;6092847;19;20711;-73
2023/05/17 08:06:44;;;;;;;9.98;3.55;;;;;;;15.51;50.16;103031.41;6087503;19;20013;-74
2023/05/17 08:08:52;;;;;;;6.03;2.22;;;;;;;15.38;50.96;103030.84;6090204;19;20447;-75
2023/05/17 08:11:00;;;;;;;10.73;2.58;;;;;;;14.63;51.64;103046.75;6088928;19;20010;-73
2023/05/17 08:13:05;;;;;;;14.48;2.72;;;;;;;14.20;52.12;103049.41;6088479;19;20018;-72
2023/05/17 08:15:12;;;;;;;7.47;2.05;;;;;;;14.23;51.71;103038.78;6100707;19;20435;-73
2023/05/17 08:17:19;;;;;;;9.02;2.35;;;;;;;14.78;50.69;103042.91;6100148;19;20043;-72
2023/05/17 08:19:26;;;;;;;13.65;2.92;;;;;;;14.38;50.30;103045.53;6099395;19;20495;-72
2023/05/17 08:21:36;;;;;;;12.00;3.83;;;;;;;14.58;50.36;103053.06;6102215;19;20014;-73
2023/05/17 08:23:44;;;;;;;7.63;2.75;;;;;;;15.39;49.64;103044.97;6100619;19;20562;-73
2023/05/17 08:25:49;;;;;;;9.60;2.45;;;;;;;15.36;48.69;103043.28;6102722;19;20013;-73
2023/05/17 08:27:54;;;;;;;10.15;2.70;;;;;;;15.35;49.16;103046.84;6103437;19;20041;-73
2023/05/17 08:29:59;;;;;;;9.88;2.42;;;;;;;15.88;49.06;103044.56;6098438;19;20010;-73
2023/05/17 08:32:05;;;;;;;11.02;3.35;;;;;;;15.18;49.92;103047.25;6101557;19;20006;-73
2023/05/17 08:34:10;;;;;;;7.78;2.22;;;;;;;15.09;50.46;103047.47;6101497;19;20515;-73
2023/05/17 08:36:15;;;;;;;9.20;2.95;;;;;;;14.93;51.70;103042.53;6097335;19;20437;-74
2023/05/17 08:38:25;;;;;;;9.48;2.75;;;;;;;15.44;49.78;103048.38;6095914;19;20917;-74
2023/05/17 08:40:33;;;;;;;7.55;2.10;;;;;;;15.13;49.35;103047.34;6099983;19;20007;-74
2023/05/17 08:42:39;;;;;;;8.05;1.98;;;;;;;15.86;48.24;103040.22;6097777;19;20519;-74
2023/05/17 08:44:45;;;;;;;9.57;2.22;;;;;;;15.62;48.62;103049.69;6093232;19;20034;-73
2023/05/17 08:46:53;;;;;;;9.82;2.42;;;;;;;14.54;50.86;103048.75;6094543;19;20010;-74
2023/05/17 08:49:02;;;;;;;6.30;2.10;;;;;;;14.37;50.83;103052.56;6096111;19;20553;-73
2023/05/17 08:51:10;;;;;;;6.25;2.10;;;;;;;15.12;49.26;103047.41;6097293;19;20582;-73
2023/05/17 08:53:16;;;;;;;6.22;2.05;;;;;;;15.44;47.92;103045.72;6088180;19;20015;-74
2023/05/17 08:55:24;;;;;;;6.80;1.88;;;;;;;14.71;47.53;103055.38;6094051;19;20007;-72
2023/05/17 08:57:36;;;;;;;5.47;1.77;;;;;;;15.88;45.96;103056.97;6093942;19;20006;-73
2023/05/17 08:59:43;;;;;;;9.30;1.73;;;;;;;16.07;44.00;103052.88;6094606;19;20017;-72
2023/05/17 09:01:51;;;;;;;8.65;2.15;;;;;;;15.49;44.96;103052.63;6094450;19;20023;-73
2023/05/17 09:03:56;;;;;;;5.65;1.70;;;;;;;15.98;45.18;103056.69;6097620;19;20075;-73
2023/05/17 09:06:02;;;;;;;5.82;1.80;;;;;;;16.83;43.83;103048.91;6094901;19;20006;-72
2023/05/17 09:08:12;;;;;;;7.10;2.03;;;;;;;17.01;43.67;103047.41;6095876;19;20543;-72
2023/05/17 09:10:18;;;;;;;7.15;1.70;;;;;;;16.74;43.46;103057.97;6096170;19;20349;-73
2023/05/17 09:12:22;;;;;;;9.68;2.47;;;;;;;16.21;42.63;103057.78;6096973;19;20007;-72
2023/05/17 09:14:37;;;;;;;6.43;1.95;;;;;;;16.58;43.61;103054.91;6094107;19;20121;-73
2023/05/17 09:16:43;;;;;;;8.20;2.15;;;;;;;17.25;42.90;103056.38;6090940;19;20002;-74
2023/05/17 09:18:55;;;;;;;7.47;2.00;;;;;;;15.67;44.47;103051.28;6094527;19;20013;-74
2023/05/17 09:21:05;;;;;;;5.97;1.70;;;;;;;15.75;45.06;103054.63;6093843;19;20851;-72
2023/05/17 09:23:13;;;;;;;6.20;1.95;;;;;;;16.94;44.12;103051.22;6089734;19;20002;-73
2023/05/17 09:25:21;;;;;;;7.78;2.67;;;;;;;17.28;40.43;103054.50;6094946;19;20499;-74
2023/05/17 09:27:26;;;;;;;6.55;1.77;;;;;;;16.23;42.51;103062.13;6094992;19;20014;-73
2023/05/17 09:29:37;;;;;;;5.40;2.20;;;;;;;16.12;43.43;103053.63;6099623;19;20006;-72
2023/05/17 09:31:45;;;;;;;;;;;;;;;17.21;41.87;103054.75;6098893;19;20014;-73
2023/05/17 09:33:55;;;;;;;5.00;2.05;;;;;;;17.45;40.50;103048.59;6094685;19;21761;-72
2023/05/17 09:36:00;;;;;;;7.05;2.10;;;;;;;17.38;40.77;103056.81;6095830;19;20006;-73
2023/05/17 09:38:08;;;;;;;10.32;2.47;;;;;;;17.98;42.41;103047.66;6091584;19;20006;-73
2023/05/17 09:40:25;;;;;;;4.40;1.77;;;;;;;18.06;40.55;103047.38;6093655;19;20014;-73
2023/05/17 09:42:31;;;;;;;8.50;2.10;;;;;;;18.41;40.96;103046.91;6095163;19;20002;-76
2023/05/17 09:44:52;;;;;;;7.32;1.92;;;;;;;18.20;40.86;103047.75;6098084;19;20031;-73
2023/05/17 09:46:59;;;;;;;5.63;2.08;;;;;;;18.34;41.24;103041.88;6091403;19;20006;-73
2023/05/17 09:49:05;;;;;;;5.70;2.38;;;;;;;18.39;41.31;103051.44;6092692;19;20014;-73